Observations for LAKENHEATH RAF, United Kingdom (EGUL)

EGUL 180256Z AUTO 14004KT 9999 CLR 01/01 A3018 RMK AO2 SLP224 T00120012 58001   
EGUL 180156Z AUTO 15004KT 9999 CLR 02/02 A3019 RMK AO2 SLP227 T00240024 
EGUL 180056Z AUTO 15004KT 9999 CLR 02/02 A3019 RMK AO2 SLP227 T00230023 
EGUL 172356Z AUTO 00000KT 9999 CLR 02/02 A3019 RMK AO2 SLP227 T00200020 10064 20019 400971015 58002 
EGUL 172256Z AUTO 13004KT 9999 SCT050 03/03 A3019 RMK AO2 SLP227 T00320032  
EGUL 172156Z AUTO 16005KT 9999 SCT049 04/04 A3019 RMK AO2 SLP227 T00430037  
EGUL 172056Z AUTO 16004KT 9999 OVC041 05/03 A3019 RMK AO2 SLP227 T00500033 53006
EGUL 171956Z AUTO 14007KT 9999 OVC060 06/02 A3018 RMK AO2 SLP224 T00560022  
EGUL 171856Z AUTO 16007KT 9999 OVC055 06/02 A3017 RMK AO2 SLP220 T00630024  
EGUL 171756Z AUTO 15004KT 9999 OVC055 06/02 A3017 RMK AO2 SLP220 T00630024 10097 20058 53004
EGUL 171656Z AUTO 16004KT 9999 BKN070 08/02 A3015 RMK AO2 SLP214 T00770020  
EGUL 171556Z AUTO 20004KT 9999 BKN070 09/02 A3015 RMK AO2 SLP213 T00850021  
EGUL 171456Z AUTO 20008KT 9999 FEW042 09/02 A3016 RMK AO2 SLP217 T00920016 55004
EGUL 171356Z AUTO 19009KT 9999 FEW039 09/02 A3016 RMK AO2 SLP217 T00930019  
EGUL 171256Z AUTO 18008KT 9999 SCT120 09/03 A3016 RMK AO2 SLP217 T00860034  
EGUL 171156Z AUTO 18009KT 9999 FEW100 08/03 A3017 RMK AO2 SLP220 T00820031 10086 21011 52005
EGUL 171056Z AUTO 19006KT 9999 CLR 08/06 A3017 RMK AO2 SLP220 T00790062 
EGUL 170956Z AUTO 18005KT 9999 SCT110 07/07 A3016 RMK AO2 SLP217 T00650065  
EGUL 170856Z AUTO 15003KT 9999 CLR 03/03 A3015 RMK AO2 SLP214 T00290029 52004   
EGUL 170756Z AUTO 14004KT 9999 CLR 00/00 A3015 RMK AO2 SLP214 T10011001 
EGUL 170711Z AUTO 00000KT 8000 BR FEW002 FEW140 M01/M01 A3015 RMK AO2 SLP214
EGUL 170656Z AUTO 09003KT 9999 FEW100 SCT140 M01/M01 A3015 RMK AO2 SLP214 T10071007 
EGUL 170556Z AUTO 00000KT 6000 BR CLR M01/M01 A3014 RMK AO2 SLP210 T10071007 10018 21015 57009  
EGUL 170456Z AUTO 12004KT 9999 FEW170 M01/M01 A3015 RMK AO2 SLP214 T10111011
EGUL 170356Z AUTO 00000KT 9999 CLR M01/M01 A3016 RMK AO2 SLP217 T10111011   
EGUL 170256Z AUTO 00000KT 9999 CLR 01/01 A3017 RMK AO2 SLP220 T00090009 55006